Terminal Aerodrome Forecast
Issued by NWS

Home | Current Version | Previous Version | Text Only | Print | Product List | Glossary On
Versions: 1 2 3 4 5 6 7 8 9 10 11 12 13 14 15 16
147
FTAK31 PAJN 271518 AAB
TAFASI
TAF AMD
PASI 271518Z 2715/2812 14011KT P6SM VCSH OVC050
     FM271700 12017G25KT P6SM RA BKN020 OVC035
     FM272000 14015G22KT 5SM -SHRA BR OVC020
     FM280600 20012KT P6SM VCSH SCT015 OVC025=

USA.gov is the U.S. government's official web portal to all federal, state and local government web resources and services.